Time;durP1;ratioP1;P1;durP2;ratioP2;P2;SDS_P1;SDS_P2;PMS_P1;PMS_P2;Temp;Humidity;BMP_temperature;BMP_pressure;BME280_temperature;BME280_humidity;BME280_pressure;Samples;Min_cycle;Max_cycle;Signal;HPM_P1;HPM_P2
2021/05/30 00:02:06;;;;;;;5.63;3.55;;;17.30;66.40;;;;;;6311143;22;20007;-75
2021/05/30 00:04:33;;;;;;;5.97;3.47;;;17.30;66.50;;;;;;6311835;22;20031;-74
2021/05/30 00:06:59;;;;;;;5.47;3.70;;;17.30;66.50;;;;;;6320972;22;20297;-75
2021/05/30 00:09:25;;;;;;;5.43;3.50;;;17.30;66.50;;;;;;6321425;22;20042;-75
2021/05/30 00:11:50;;;;;;;4.70;3.33;;;17.30;66.50;;;;;;6321131;22;20015;-76
2021/05/30 00:14:17;;;;;;;6.03;3.83;;;17.30;66.50;;;;;;6320950;22;20011;-76
2021/05/30 00:16:43;;;;;;;5.90;3.85;;;17.30;66.50;;;;;;6321178;22;20011;-75
2021/05/30 00:19:09;;;;;;;4.65;3.55;;;17.30;66.50;;;;;;6311191;22;20011;-74
2021/05/30 00:21:35;;;;;;;4.38;3.70;;;17.30;66.50;;;;;;6311143;22;20397;-75
2021/05/30 00:24:01;;;;;;;5.70;3.47;;;17.30;66.50;;;;;;6294475;22;20384;-75
2021/05/30 00:26:26;;;;;;;5.28;3.58;;;17.30;66.50;;;;;;6321090;22;20015;-74
2021/05/30 00:28:52;;;;;;;4.38;3.50;;;17.30;66.60;;;;;;6321281;22;20018;-75
2021/05/30 00:31:19;;;;;;;6.25;3.45;;;17.30;66.50;;;;;;6321865;22;20018;-75
2021/05/30 00:33:46;;;;;;;6.38;3.88;;;17.30;66.50;;;;;;6321424;22;20031;-74
2021/05/30 00:36:12;;;;;;;4.53;3.70;;;17.30;66.50;;;;;;6310628;22;20015;-76
2021/05/30 00:38:38;;;;;;;4.90;3.67;;;17.30;66.50;;;;;;6321951;22;20011;-76
2021/05/30 00:41:04;;;;;;;5.07;3.65;;;17.20;66.40;;;;;;6321486;22;20076;-76
2021/05/30 00:43:30;;;;;;;6.15;3.80;;;17.30;66.50;;;;;;6321163;22;20019;-76
2021/05/30 00:45:56;;;;;;;5.22;3.78;;;17.20;66.40;;;;;;6320333;22;20011;-76
2021/05/30 00:48:21;;;;;;;4.90;3.55;;;17.20;66.40;;;;;;6317554;22;20011;-74
2021/05/30 00:50:47;;;;;;;6.22;3.50;;;17.30;66.50;;;;;;6321797;22;20020;-76
2021/05/30 00:53:16;;;;;;;5.22;3.75;;;17.30;66.50;;;;;;6321581;22;20008;-75
2021/05/30 00:55:43;;;;;;;6.55;3.80;;;17.20;66.40;;;;;;6321057;22;20023;-74
2021/05/30 00:58:09;;;;;;;6.47;3.88;;;17.30;66.50;;;;;;6321050;22;20011;-74
2021/05/30 01:00:34;;;;;;;5.40;3.67;;;17.20;66.40;;;;;;6320411;22;20022;-75
2021/05/30 01:03:00;;;;;;;5.50;3.42;;;17.20;66.40;;;;;;6310772;22;20039;-75
2021/05/30 01:05:26;;;;;;;6.55;3.58;;;17.20;66.40;;;;;;6320761;22;20023;-75
2021/05/30 01:07:52;;;;;;;6.32;4.15;;;17.20;66.40;;;;;;6320935;22;20072;-75
2021/05/30 01:10:35;;;;;;;4.63;3.63;;;17.20;66.40;;;;;;6320879;22;20007;-76
2021/05/30 01:13:04;;;;;;;6.55;3.80;;;17.20;66.30;;;;;;6320958;22;20035;-76
2021/05/30 01:15:31;;;;;;;5.40;3.90;;;17.20;66.40;;;;;;6320558;22;20015;-74
2021/05/30 01:17:58;;;;;;;5.30;3.35;;;17.20;66.40;;;;;;6321410;22;20077;-75
2021/05/30 01:20:25;;;;;;;7.22;3.88;;;17.20;66.40;;;;;;6310544;22;20015;-74
2021/05/30 01:22:52;;;;;;;6.20;3.65;;;17.20;66.40;;;;;;6321051;22;20086;-75
2021/05/30 01:25:20;;;;;;;5.28;3.78;;;17.20;66.40;;;;;;6321167;22;20040;-76
2021/05/30 01:27:48;;;;;;;4.78;3.42;;;17.20;66.40;;;;;;6320996;22;20018;-76
2021/05/30 01:30:16;;;;;;;7.95;3.90;;;17.10;66.40;;;;;;6321200;22;20022;-76
2021/05/30 01:32:43;;;;;;;6.07;4.00;;;17.20;66.40;;;;;;6310665;22;20021;-75
2021/05/30 01:35:10;;;;;;;7.93;3.70;;;17.10;66.40;;;;;;6319788;22;20399;-74
2021/05/30 01:37:36;;;;;;;5.40;3.80;;;17.10;66.40;;;;;;6320782;22;20061;-74
2021/05/30 01:40:03;;;;;;;5.72;4.13;;;17.10;66.40;;;;;;6320164;22;20023;-75
2021/05/30 01:42:30;;;;;;;6.10;3.83;;;17.10;67.00;;;;;;6310919;22;20014;-76
2021/05/30 01:44:55;;;;;;;7.22;4.25;;;17.10;66.40;;;;;;6293358;22;20285;-75
2021/05/30 01:47:22;;;;;;;6.57;3.45;;;17.10;66.40;;;;;;6321098;22;20019;-75
2021/05/30 01:49:47;;;;;;;5.97;3.63;;;17.10;66.30;;;;;;6311600;22;20419;-74
2021/05/30 01:52:14;;;;;;;7.68;4.20;;;17.10;66.30;;;;;;6320579;22;20011;-75
2021/05/30 01:54:46;;;;;;;6.20;4.00;;;17.10;66.30;;;;;;6320085;22;20003;-75
2021/05/30 01:57:13;;;;;;;4.57;3.63;;;17.10;66.40;;;;;;6320978;22;20046;-76
2021/05/30 01:59:39;;;;;;;5.15;4.00;;;17.10;66.30;;;;;;6320335;22;20040;-76
2021/05/30 02:02:06;;;;;;;5.75;4.38;;;17.10;66.40;;;;;;6320403;22;20057;-75
2021/05/30 02:04:37;;;;;;;6.47;3.95;;;17.10;66.30;;;;;;6320516;22;20030;-75
2021/05/30 02:07:03;;;;;;;7.93;3.85;;;17.10;66.30;;;;;;6310205;22;20049;-74
2021/05/30 02:09:32;;;;;;;6.40;4.10;;;17.10;66.30;;;;;;6320634;22;20049;-75
2021/05/30 02:11:58;;;;;;;4.63;3.33;;;17.10;66.40;;;;;;6310056;22;20011;-75
2021/05/30 02:14:25;;;;;;;6.18;3.85;;;17.10;66.40;;;;;;6320318;22;20057;-76
2021/05/30 02:16:51;;;;;;;5.03;3.45;;;17.10;66.30;;;;;;6319965;22;20007;-74
2021/05/30 02:19:17;;;;;;;6.43;3.80;;;17.10;66.30;;;;;;6320448;22;20022;-74
2021/05/30 02:21:51;;;;;;;5.45;4.20;;;17.10;66.30;;;;;;6320212;22;20018;-74
2021/05/30 02:24:20;;;;;;;6.65;4.00;;;17.10;66.30;;;;;;6319970;22;20018;-76
2021/05/30 02:26:46;;;;;;;5.63;4.07;;;17.10;66.30;;;;;;6320497;22;20018;-76
2021/05/30 02:29:40;;;;;;;5.95;3.90;;;17.10;66.30;;;;;;6310648;22;20411;-75
2021/05/30 02:32:08;;;;;;;6.53;4.07;;;17.10;66.20;;;;;;6304408;22;20084;-74
2021/05/30 02:34:35;;;;;;;5.38;4.18;;;17.00;66.30;;;;;;6293323;22;20085;-75
2021/05/30 02:37:02;;;;;;;6.10;4.22;;;17.10;66.30;;;;;;6320388;22;20035;-76
2021/05/30 02:39:32;;;;;;;6.70;3.97;;;17.00;66.20;;;;;;6320371;22;20011;-76
2021/05/30 02:41:58;;;;;;;5.95;3.80;;;17.00;66.20;;;;;;6309928;22;20011;-75
2021/05/30 02:44:24;;;;;;;8.07;4.57;;;17.00;66.30;;;;;;6320120;22;20354;-76
2021/05/30 02:46:50;;;;;;;6.43;4.13;;;17.00;66.20;;;;;;6321857;22;20046;-74
2021/05/30 02:49:16;;;;;;;5.97;3.92;;;17.10;66.30;;;;;;6315028;22;20007;-74
2021/05/30 02:51:43;;;;;;;4.55;3.47;;;17.00;66.30;;;;;;6321968;22;20014;-75
2021/05/30 02:54:09;;;;;;;7.30;4.38;;;17.00;66.30;;;;;;6322151;22;20304;-76
2021/05/30 02:56:35;;;;;;;6.90;4.47;;;17.10;66.30;;;;;;6312624;22;20094;-76
2021/05/30 02:59:00;;;;;;;7.97;3.80;;;17.00;66.30;;;;;;6322195;22;20008;-75
2021/05/30 03:01:27;;;;;;;6.93;4.40;;;17.00;66.20;;;;;;6295060;22;20011;-75
2021/05/30 03:03:52;;;;;;;5.63;3.85;;;17.00;66.20;;;;;;6322179;22;20007;-75
2021/05/30 03:06:20;;;;;;;5.90;3.83;;;17.00;66.20;;;;;;6322243;22;20092;-74
2021/05/30 03:08:45;;;;;;;6.95;4.18;;;17.00;66.20;;;;;;6294885;22;20007;-75
2021/05/30 03:11:11;;;;;;;5.90;3.75;;;17.00;66.20;;;;;;6321829;22;20038;-74
2021/05/30 03:13:37;;;;;;;6.25;4.03;;;17.00;66.20;;;;;;6321785;22;20015;-75
2021/05/30 03:16:03;;;;;;;5.82;4.45;;;17.00;66.20;;;;;;6321659;22;20086;-75
2021/05/30 03:18:29;;;;;;;6.63;3.60;;;17.00;66.20;;;;;;6294743;22;20030;-76
2021/05/30 03:20:55;;;;;;;6.07;3.85;;;17.00;66.20;;;;;;6321437;22;20462;-75
2021/05/30 03:23:21;;;;;;;4.57;3.83;;;17.00;66.20;;;;;;6321992;22;20011;-75
2021/05/30 03:25:47;;;;;;;5.38;3.83;;;17.00;66.20;;;;;;6322183;22;20483;-76
2021/05/30 03:28:12;;;;;;;7.85;3.92;;;17.00;66.20;;;;;;6312873;22;20022;-75
2021/05/30 03:30:38;;;;;;;5.47;3.70;;;17.00;66.20;;;;;;6321833;22;20034;-75
2021/05/30 03:33:04;;;;;;;6.53;3.83;;;17.00;66.20;;;;;;6311294;22;20430;-76
2021/05/30 03:35:31;;;;;;;6.07;3.78;;;16.90;66.10;;;;;;6321873;22;20007;-74
2021/05/30 03:37:58;;;;;;;4.40;3.80;;;16.90;66.10;;;;;;6321681;22;20015;-75
2021/05/30 03:42:52;;;;;;;7.10;3.80;;;17.00;66.10;;;;;;6321618;22;20011;-76
2021/05/30 03:45:20;;;;;;;7.25;4.43;;;17.00;66.10;;;;;;6321730;22;20408;-76
2021/05/30 03:47:46;;;;;;;5.97;3.72;;;17.00;66.10;;;;;;6320800;22;20015;-75
2021/05/30 03:50:12;;;;;;;4.47;3.72;;;17.00;66.10;;;;;;6321702;22;20076;-76
2021/05/30 03:52:38;;;;;;;6.10;3.65;;;17.00;66.10;;;;;;6310927;22;20090;-75
2021/05/30 03:55:05;;;;;;;5.63;3.90;;;17.00;66.20;;;;;;6321789;22;20011;-76
2021/05/30 03:57:32;;;;;;;5.65;3.40;;;17.00;66.10;;;;;;6321421;22;20007;-75
2021/05/30 03:59:59;;;;;;;7.70;3.88;;;17.00;66.10;;;;;;6321114;22;20088;-74
2021/05/30 04:02:25;;;;;;;6.15;3.72;;;16.90;66.00;;;;;;6321506;22;20015;-75
2021/05/30 04:04:51;;;;;;;6.38;3.92;;;16.90;66.00;;;;;;6321140;22;20035;-76
2021/05/30 04:07:17;;;;;;;5.05;3.95;;;17.00;66.10;;;;;;6321330;22;20307;-74
2021/05/30 04:09:43;;;;;;;4.95;3.85;;;16.90;66.00;;;;;;6321332;22;20022;-76
2021/05/30 04:12:09;;;;;;;6.93;3.20;;;16.90;66.00;;;;;;6322242;22;20061;-75
2021/05/30 04:14:38;;;;;;;7.28;3.78;;;16.90;66.00;;;;;;6320872;22;20335;-76
2021/05/30 04:17:04;;;;;;;5.75;3.70;;;16.90;66.00;;;;;;6321921;22;20011;-74
2021/05/30 04:19:29;;;;;;;7.18;3.70;;;16.90;66.00;;;;;;6321845;22;20019;-75
2021/05/30 04:21:55;;;;;;;8.15;4.18;;;16.90;66.10;;;;;;6320930;22;20007;-75
2021/05/30 04:24:21;;;;;;;9.10;4.25;;;16.90;66.00;;;;;;6311533;22;20045;-76
2021/05/30 04:26:47;;;;;;;6.63;4.30;;;16.90;66.00;;;;;;6321235;22;20018;-75
2021/05/30 04:29:13;;;;;;;7.90;3.88;;;16.90;66.00;;;;;;6313286;22;20007;-75
2021/05/30 04:31:39;;;;;;;5.65;3.40;;;16.90;65.90;;;;;;6284412;22;20019;-74
2021/05/30 04:34:04;;;;;;;7.68;3.97;;;16.90;65.90;;;;;;6311177;22;20034;-75
2021/05/30 04:36:30;;;;;;;7.03;3.65;;;16.90;65.90;;;;;;6321087;22;20292;-76
2021/05/30 04:38:57;;;;;;;5.88;3.65;;;16.90;65.90;;;;;;6321379;22;20030;-76
2021/05/30 04:41:22;;;;;;;5.80;3.50;;;16.90;65.90;;;;;;6294325;22;20011;-75
2021/05/30 04:43:48;;;;;;;6.05;3.72;;;16.90;65.90;;;;;;6320968;22;20083;-75
2021/05/30 04:46:14;;;;;;;5.15;3.40;;;16.90;65.90;;;;;;6321426;22;20042;-74
2021/05/30 04:48:40;;;;;;;6.40;3.72;;;16.90;65.90;;;;;;6316189;22;20330;-75
2021/05/30 04:51:07;;;;;;;6.45;4.10;;;16.90;65.90;;;;;;6294083;22;20018;-76
2021/05/30 04:53:37;;;;;;;6.43;3.70;;;16.90;65.90;;;;;;6321166;22;20003;-75
2021/05/30 04:56:04;;;;;;;6.88;3.92;;;16.80;65.80;;;;;;6321111;22;20085;-75
2021/05/30 04:58:30;;;;;;;4.93;3.50;;;16.90;65.90;;;;;;6321148;22;20022;-76
2021/05/30 05:00:56;;;;;;;4.68;3.65;;;16.90;65.90;;;;;;6310524;22;20024;-74
2021/05/30 05:03:22;;;;;;;6.30;4.00;;;16.80;65.80;;;;;;6321030;22;20019;-75
2021/05/30 05:05:52;;;;;;;5.22;3.67;;;16.90;65.90;;;;;;6321207;22;20022;-76
2021/05/30 05:08:19;;;;;;;5.20;3.40;;;16.90;65.90;;;;;;6320415;22;20022;-75
2021/05/30 05:10:45;;;;;;;5.57;3.85;;;16.90;65.90;;;;;;6294010;22;20017;-75
2021/05/30 05:13:10;;;;;;;5.65;3.78;;;16.90;65.90;;;;;;6321373;22;20086;-75
2021/05/30 05:15:36;;;;;;;4.68;3.83;;;16.90;65.90;;;;;;6320940;22;20022;-75
2021/05/30 05:18:16;;;;;;;7.28;4.20;;;16.80;65.80;;;;;;6320732;22;20027;-76
2021/05/30 05:20:46;;;;;;;4.22;3.63;;;16.80;65.80;;;;;;6310274;22;20102;-75
2021/05/30 05:23:13;;;;;;;5.75;4.03;;;16.90;65.90;;;;;;6320411;22;20141;-75
2021/05/30 05:25:40;;;;;;;8.50;4.10;;;16.90;65.90;;;;;;6310283;22;20025;-76
2021/05/30 05:28:06;;;;;;;6.07;4.07;;;16.90;65.90;;;;;;6311218;22;20023;-75
2021/05/30 05:30:32;;;;;;;6.53;3.88;;;16.90;65.90;;;;;;6321390;22;20029;-75
2021/05/30 05:32:59;;;;;;;5.97;3.67;;;16.80;65.80;;;;;;6309874;22;20022;-74
2021/05/30 05:35:28;;;;;;;5.55;3.58;;;16.80;65.80;;;;;;6320346;22;20319;-76
2021/05/30 05:37:56;;;;;;;4.40;3.33;;;16.90;65.90;;;;;;6320571;22;20022;-74
2021/05/30 05:40:24;;;;;;;5.43;4.00;;;16.90;65.90;;;;;;6320573;22;20023;-76
2021/05/30 05:42:50;;;;;;;5.55;3.55;;;16.90;65.90;;;;;;6320251;22;20072;-76
2021/05/30 05:45:17;;;;;;;5.63;3.90;;;16.90;65.90;;;;;;6320812;22;20047;-76
2021/05/30 05:47:54;;;;;;;7.07;3.95;;;16.90;65.90;;;;;;6318656;22;20007;-75
2021/05/30 05:50:22;;;;;;;7.32;4.07;;;16.80;65.80;;;;;;6321085;22;20007;-76
2021/05/30 05:52:49;;;;;;;5.32;3.58;;;16.80;65.80;;;;;;6309511;22;20137;-75
2021/05/30 05:55:15;;;;;;;5.28;3.55;;;16.80;65.80;;;;;;6320533;22;20442;-76
2021/05/30 05:57:43;;;;;;;7.28;4.38;;;16.80;65.80;;;;;;6320457;22;20015;-76
2021/05/30 06:00:11;;;;;;;6.60;3.88;;;16.90;65.90;;;;;;6320406;22;20011;-76
2021/05/30 06:02:37;;;;;;;5.47;4.05;;;16.90;65.90;;;;;;6320094;22;20015;-75
2021/05/30 06:05:06;;;;;;;6.40;3.97;;;16.80;65.80;;;;;;6320420;22;20064;-75
2021/05/30 06:07:33;;;;;;;7.22;4.03;;;16.80;65.80;;;;;;6283821;22;20416;-74
2021/05/30 06:09:59;;;;;;;4.43;3.75;;;16.80;65.80;;;;;;6320718;22;20013;-74
2021/05/30 06:12:25;;;;;;;5.07;3.30;;;16.80;65.80;;;;;;6320284;22;20026;-75
2021/05/30 06:14:51;;;;;;;6.55;3.92;;;16.90;65.90;;;;;;6320332;22;20015;-75
2021/05/30 06:17:17;;;;;;;6.18;3.92;;;16.80;65.80;;;;;;6320291;22;20382;-74
2021/05/30 06:19:43;;;;;;;5.00;3.28;;;16.90;65.90;;;;;;6320097;22;20018;-76
2021/05/30 06:22:08;;;;;;;7.18;3.80;;;16.80;65.80;;;;;;6309652;22;20434;-76
2021/05/30 06:24:35;;;;;;;5.88;3.75;;;16.90;65.90;;;;;;6320879;22;20008;-75
2021/05/30 06:27:03;;;;;;;7.10;3.70;;;16.90;65.90;;;;;;6310150;22;20550;-76
2021/05/30 06:29:29;;;;;;;7.45;4.13;;;16.90;65.90;;;;;;6294038;22;20011;-76
2021/05/30 06:31:55;;;;;;;6.70;3.75;;;16.80;65.80;;;;;;6320282;22;20007;-75
2021/05/30 06:34:21;;;;;;;6.80;3.90;;;16.90;65.90;;;;;;6309900;22;20090;-75
2021/05/30 06:36:49;;;;;;;6.32;4.10;;;16.90;65.90;;;;;;6320523;22;20288;-75
2021/05/30 06:39:16;;;;;;;6.38;3.85;;;16.80;65.80;;;;;;6320175;22;20014;-75
2021/05/30 06:41:43;;;;;;;6.88;3.88;;;16.90;65.90;;;;;;6320177;22;20022;-75
2021/05/30 06:44:09;;;;;;;5.30;3.35;;;16.90;65.90;;;;;;6319949;22;20363;-75
2021/05/30 06:46:36;;;;;;;6.10;4.10;;;16.90;65.90;;;;;;6320143;22;20015;-75
2021/05/30 06:49:03;;;;;;;5.32;3.60;;;16.90;66.40;;;;;;6310222;22;20312;-76
2021/05/30 06:51:30;;;;;;;5.60;3.55;;;16.90;65.80;;;;;;6319812;22;20096;-76
2021/05/30 06:53:58;;;;;;;5.18;3.60;;;16.90;65.70;;;;;;6320604;22;20018;-75
2021/05/30 06:56:24;;;;;;;4.30;3.30;;;16.90;65.80;;;;;;6309630;22;20017;-76
2021/05/30 06:58:50;;;;;;;5.32;3.53;;;16.90;65.80;;;;;;6320430;22;20061;-76
2021/05/30 07:01:16;;;;;;;5.97;4.13;;;16.90;65.90;;;;;;6308900;22;20007;-75
2021/05/30 07:03:42;;;;;;;5.53;3.60;;;16.90;65.90;;;;;;6320027;22;20015;-75
2021/05/30 07:06:08;;;;;;;4.38;3.40;;;16.90;65.90;;;;;;6320173;22;20011;-75
2021/05/30 07:08:54;;;;;;;6.15;3.47;;;16.90;65.80;;;;;;6287555;22;20023;-74
2021/05/30 07:11:20;;;;;;;4.05;3.65;;;17.00;65.90;;;;;;6319731;22;20066;-75
2021/05/30 07:13:46;;;;;;;5.60;3.63;;;17.00;65.80;;;;;;6310500;22;20018;-75
2021/05/30 07:16:12;;;;;;;4.75;3.20;;;17.00;65.80;;;;;;6309647;22;20015;-75
2021/05/30 07:18:37;;;;;;;6.00;3.80;;;17.00;65.70;;;;;;6320416;22;20037;-76
2021/05/30 07:21:04;;;;;;;5.95;3.97;;;17.00;65.70;;;;;;6319755;22;20011;-76
2021/05/30 07:23:29;;;;;;;7.15;3.55;;;17.00;65.70;;;;;;6309546;22;20024;-75
2021/05/30 07:25:56;;;;;;;7.22;3.67;;;17.00;65.90;;;;;;6319922;22;20402;-74
2021/05/30 07:28:22;;;;;;;6.55;3.92;;;17.00;65.90;;;;;;6319467;22;20309;-75
2021/05/30 07:30:49;;;;;;;5.90;3.60;;;17.10;66.00;;;;;;6319465;22;20019;-75
2021/05/30 07:33:15;;;;;;;5.57;3.90;;;17.10;66.00;;;;;;6310952;22;20034;-75
2021/05/30 07:35:41;;;;;;;4.38;3.75;;;17.10;66.20;;;;;;6321820;22;20011;-76
2021/05/30 07:38:07;;;;;;;5.28;3.90;;;17.10;66.20;;;;;;6321474;22;20007;-74
2021/05/30 07:40:33;;;;;;;4.75;3.30;;;17.10;66.20;;;;;;6321382;22;20011;-75
2021/05/30 07:43:01;;;;;;;4.97;3.65;;;17.10;66.20;;;;;;6321720;22;20066;-75
2021/05/30 07:45:28;;;;;;;4.68;3.72;;;17.10;66.30;;;;;;6311375;22;20284;-74
2021/05/30 07:47:57;;;;;;;6.93;4.07;;;17.10;66.30;;;;;;6319897;22;20007;-75
2021/05/30 07:50:23;;;;;;;5.80;3.50;;;17.10;66.30;;;;;;6311184;22;20044;-76
2021/05/30 07:52:50;;;;;;;7.55;3.50;;;17.10;66.50;;;;;;6321952;22;20072;-74
2021/05/30 07:55:16;;;;;;;5.05;3.70;;;17.20;66.70;;;;;;6322079;22;20032;-76
2021/05/30 07:57:43;;;;;;;4.95;3.67;;;17.10;67.30;;;;;;6322209;22;20038;-76
2021/05/30 08:00:12;;;;;;;5.75;3.53;;;17.20;67.30;;;;;;6321804;22;20014;-75
2021/05/30 08:02:38;;;;;;;5.32;3.80;;;17.20;66.70;;;;;;6321167;22;20477;-76
2021/05/30 08:05:06;;;;;;;4.60;3.67;;;17.20;66.80;;;;;;6311063;22;20007;-76
2021/05/30 08:07:33;;;;;;;5.80;3.95;;;17.20;66.80;;;;;;6321562;22;20014;-76
2021/05/30 08:09:59;;;;;;;6.47;3.63;;;17.20;66.80;;;;;;6311099;22;20015;-76
2021/05/30 08:12:30;;;;;;;5.53;3.85;;;17.20;66.80;;;;;;6311293;22;20012;-77
2021/05/30 08:14:56;;;;;;;4.18;3.38;;;17.20;67.00;;;;;;6321779;22;20072;-75
2021/05/30 08:17:22;;;;;;;5.50;3.63;;;17.30;67.10;;;;;;6311596;22;20411;-76
2021/05/30 08:19:50;;;;;;;5.47;3.72;;;17.30;67.10;;;;;;6321716;22;20007;-75
2021/05/30 08:22:16;;;;;;;4.78;3.28;;;17.30;67.10;;;;;;6311531;22;20011;-75
2021/05/30 08:24:43;;;;;;;4.13;3.33;;;17.30;67.10;;;;;;6284016;22;20040;-75
2021/05/30 08:27:10;;;;;;;4.72;3.42;;;17.30;67.20;;;;;;6322072;22;20461;-76
2021/05/30 08:29:36;;;;;;;5.80;3.63;;;17.30;67.20;;;;;;6321130;22;20019;-75
2021/05/30 08:32:04;;;;;;;6.80;3.67;;;17.30;67.20;;;;;;6310807;22;20053;-76
2021/05/30 08:34:31;;;;;;;5.45;3.83;;;17.30;67.20;;;;;;6321006;22;20416;-75
2021/05/30 08:36:58;;;;;;;4.55;3.90;;;17.30;67.20;;;;;;6310997;22;20023;-77
2021/05/30 08:39:24;;;;;;;9.07;4.55;;;17.40;67.20;;;;;;6320840;22;20440;-75
2021/05/30 08:41:50;;;;;;;5.72;3.88;;;17.40;67.20;;;;;;6321108;22;20018;-75
2021/05/30 08:44:16;;;;;;;5.35;3.53;;;17.40;67.30;;;;;;6321640;22;20400;-76
2021/05/30 08:46:42;;;;;;;5.10;3.67;;;17.40;67.30;;;;;;6321151;22;20026;-76
2021/05/30 08:49:09;;;;;;;5.55;4.10;;;17.40;67.30;;;;;;6313967;22;20035;-76
2021/05/30 08:51:38;;;;;;;4.97;3.65;;;17.40;67.20;;;;;;6321345;22;20007;-75
2021/05/30 08:54:15;;;;;;;4.28;3.38;;;17.40;67.20;;;;;;6293961;22;20038;-77
2021/05/30 08:56:42;;;;;;;7.50;3.65;;;17.50;67.30;;;;;;6320902;22;20007;-76
2021/05/30 08:59:33;;;;;;;5.13;3.40;;;17.50;67.30;;;;;;6310782;22;20387;-76
2021/05/30 09:02:10;;;;;;;5.22;3.40;;;17.50;67.20;;;;;;6293609;22;20018;-75
2021/05/30 09:04:52;;;;;;;5.93;3.78;;;17.50;67.20;;;;;;6320883;22;20078;-75
2021/05/30 09:07:19;;;;;;;5.72;3.78;;;17.50;67.10;;;;;;6320494;22;20018;-76
2021/05/30 09:09:49;;;;;;;7.35;3.90;;;17.50;67.10;;;;;;6321222;22;20405;-76
2021/05/30 09:12:45;;;;;;;6.90;4.00;;;17.50;67.10;;;;;;6320492;22;20022;-76
2021/05/30 09:18:23;;;;;;;5.45;3.58;;;17.50;67.10;;;;;;6288787;22;20339;-78
2021/05/30 09:20:59;;;;;;;4.75;3.25;;;17.50;67.10;;;;;;6310578;22;20145;-76
2021/05/30 09:23:32;;;;;;;5.20;3.65;;;17.50;67.10;;;;;;6309694;22;20417;-76
2021/05/30 09:26:19;;;;;;;4.22;3.38;;;17.50;67.10;;;;;;6310701;22;20019;-76
2021/05/30 09:29:03;;;;;;;5.57;3.80;;;17.60;67.20;;;;;;6320489;22;20350;-76
2021/05/30 09:31:29;;;;;;;5.07;3.53;;;17.60;67.20;;;;;;6320318;22;20007;-75
2021/05/30 09:33:55;;;;;;;5.50;3.78;;;17.60;67.10;;;;;;6310072;22;20030;-77
2021/05/30 09:36:22;;;;;;;5.20;3.25;;;17.60;67.10;;;;;;6320658;22;20015;-76
2021/05/30 09:39:00;;;;;;;4.15;3.30;;;17.60;67.10;;;;;;6320717;22;20078;-77
2021/05/30 09:41:26;;;;;;;6.60;3.85;;;17.60;67.10;;;;;;6309901;22;20019;-77
2021/05/30 09:43:54;;;;;;;5.30;3.53;;;17.60;67.00;;;;;;6293746;22;20015;-75
2021/05/30 09:46:22;;;;;;;5.32;3.65;;;17.60;67.00;;;;;;6320533;22;20011;-75
2021/05/30 09:48:50;;;;;;;4.93;3.40;;;17.60;67.00;;;;;;6315486;22;20430;-76
2021/05/30 09:51:29;;;;;;;4.72;3.25;;;17.60;67.00;;;;;;6320297;22;20471;-78
2021/05/30 09:54:14;;;;;;;4.57;3.35;;;17.60;67.00;;;;;;6309817;22;20339;-77
2021/05/30 09:56:40;;;;;;;;;;;17.60;67.00;;;;;;6283557;22;20418;-76
2021/05/30 09:59:09;;;;;;;5.00;3.10;;;17.60;67.10;;;;;;6309990;22;20291;-76
2021/05/30 10:01:50;;;;;;;4.95;3.60;;;17.60;67.00;;;;;;6315650;22;20018;-76
2021/05/30 10:04:17;;;;;;;4.32;3.55;;;17.60;66.90;;;;;;6320321;22;20006;-77
2021/05/30 10:06:43;;;;;;;6.15;3.78;;;17.70;67.00;;;;;;6320786;22;20019;-76
2021/05/30 10:09:10;;;;;;;5.32;3.10;;;17.70;67.00;;;;;;6319988;22;20007;-75
2021/05/30 10:11:37;;;;;;;4.93;3.33;;;17.70;67.00;;;;;;6309711;22;20030;-76
2021/05/30 10:14:04;;;;;;;4.57;3.42;;;17.70;66.90;;;;;;6320226;22;20094;-77
2021/05/30 10:16:31;;;;;;;4.15;3.30;;;17.70;66.90;;;;;;6309534;22;20404;-76
2021/05/30 10:19:03;;;;;;;5.70;3.78;;;17.70;66.90;;;;;;6320168;22;20104;-74
2021/05/30 10:21:30;;;;;;;4.50;3.17;;;17.70;66.90;;;;;;6309874;22;20018;-75
2021/05/30 10:23:58;;;;;;;5.40;3.80;;;17.70;66.90;;;;;;6309915;22;20078;-77
2021/05/30 10:26:24;;;;;;;5.22;3.40;;;17.70;66.90;;;;;;6320875;22;20401;-75
2021/05/30 10:29:02;;;;;;;4.38;3.75;;;17.70;66.90;;;;;;6293413;22;20061;-76
2021/05/30 10:31:33;;;;;;;4.45;3.92;;;17.70;66.90;;;;;;6282822;22;20097;-75
2021/05/30 10:34:12;;;;;;;5.05;3.17;;;17.70;66.90;;;;;;6309689;22;20011;-75
2021/05/30 10:36:39;;;;;;;5.40;3.08;;;17.70;66.90;;;;;;6321012;22;20018;-75
2021/05/30 10:39:30;;;;;;;5.57;3.30;;;17.70;66.80;;;;;;6319756;22;20431;-76
2021/05/30 10:42:16;;;;;;;4.43;3.42;;;17.80;66.80;;;;;;6319888;22;20015;-76
2021/05/30 10:44:59;;;;;;;4.80;3.38;;;17.70;66.80;;;;;;6319621;22;20012;-76
2021/05/30 10:47:43;;;;;;;5.85;3.75;;;17.70;66.80;;;;;;6309352;22;20343;-76
2021/05/30 10:50:14;;;;;;;4.57;3.10;;;17.70;66.70;;;;;;6309327;22;20015;-76
2021/05/30 10:52:42;;;;;;;4.50;3.55;;;17.70;66.80;;;;;;6319583;22;20027;-76
2021/05/30 10:55:18;;;;;;;4.10;3.38;;;17.70;66.80;;;;;;6309405;22;20385;-77
2021/05/30 10:57:47;;;;;;;4.38;3.78;;;17.80;66.80;;;;;;6320715;22;20021;-75
2021/05/30 11:00:21;;;;;;;6.35;3.42;;;17.80;66.80;;;;;;6310025;22;20011;-77
2021/05/30 11:03:05;;;;;;;4.60;3.17;;;17.80;66.80;;;;;;6319928;22;20027;-76
2021/05/30 11:05:50;;;;;;;;;;;17.80;66.80;;;;;;6320500;22;20057;-77
2021/05/30 11:08:31;;;;;;;4.35;3.25;;;17.70;66.70;;;;;;6311860;22;19911;-76
2021/05/30 11:11:26;;;;;;;3.72;3.08;;;17.70;66.80;;;;;;6322026;22;20011;-75
2021/05/30 11:14:14;;;;;;;5.20;3.28;;;17.80;66.70;;;;;;6321818;22;20021;-75
2021/05/30 11:16:46;;;;;;;4.30;3.28;;;17.80;66.80;;;;;;6311849;22;20296;-76
2021/05/30 11:19:16;;;;;;;3.05;2.72;;;17.80;67.40;;;;;;6311862;22;20341;-75
2021/05/30 11:21:47;;;;;;;5.30;3.13;;;17.80;66.70;;;;;;6322772;22;20030;-75
2021/05/30 11:24:18;;;;;;;4.07;3.35;;;17.80;66.80;;;;;;6311248;22;20011;-76
2021/05/30 11:27:10;;;;;;;4.20;3.28;;;17.70;66.70;;;;;;6321949;22;20017;-78
2021/05/30 11:29:36;;;;;;;6.05;3.97;;;17.80;66.80;;;;;;6305422;22;20023;-76
2021/05/30 11:32:04;;;;;;;3.30;3.00;;;17.80;66.80;;;;;;6321731;22;20015;-75
2021/05/30 11:34:31;;;;;;;3.55;3.17;;;17.80;66.80;;;;;;6321606;22;20007;-76
2021/05/30 11:37:09;;;;;;;6.15;3.53;;;17.80;66.70;;;;;;6311414;22;20062;-74
2021/05/30 11:39:40;;;;;;;3.97;3.50;;;17.80;66.70;;;;;;6322077;22;20018;-76
2021/05/30 11:42:06;;;;;;;5.60;3.88;;;17.70;66.70;;;;;;6321910;22;20011;-78
2021/05/30 11:44:33;;;;;;;4.82;3.78;;;17.70;66.70;;;;;;6294174;22;20072;-76
2021/05/30 11:47:04;;;;;;;4.70;3.20;;;17.80;66.70;;;;;;6321844;22;20011;-75
2021/05/30 11:49:33;;;;;;;4.47;3.78;;;17.80;66.70;;;;;;6311876;22;20057;-77
2021/05/30 11:52:09;;;;;;;3.85;3.28;;;17.80;66.70;;;;;;6322142;22;20011;-77
2021/05/30 11:54:50;;;;;;;3.60;3.30;;;17.70;66.60;;;;;;6321574;22;20068;-75
2021/05/30 11:57:22;;;;;;;4.28;3.28;;;17.80;66.70;;;;;;6321248;22;20007;-75
2021/05/30 11:59:57;;;;;;;4.40;3.85;;;17.80;66.70;;;;;;6321622;22;20011;-75
2021/05/30 12:02:38;;;;;;;4.95;3.30;;;17.80;66.70;;;;;;6322096;22;20007;-77
2021/05/30 12:05:06;;;;;;;6.00;3.92;;;17.80;66.60;;;;;;6311096;22;20018;-75
2021/05/30 12:07:33;;;;;;;4.22;3.83;;;17.70;66.60;;;;;;6294550;22;20011;-77
2021/05/30 12:10:00;;;;;;;4.20;3.45;;;17.80;66.70;;;;;;6321302;22;20022;-75
2021/05/30 12:12:35;;;;;;;5.03;3.42;;;17.80;66.60;;;;;;6321220;22;20030;-75
2021/05/30 12:15:08;;;;;;;5.78;3.60;;;17.80;66.60;;;;;;6310991;22;20011;-77
2021/05/30 12:17:39;;;;;;;4.28;3.22;;;17.80;66.60;;;;;;6311516;22;20011;-75
2021/05/30 12:20:06;;;;;;;4.20;3.45;;;17.80;66.60;;;;;;6321972;22;20018;-76
2021/05/30 12:22:33;;;;;;;5.07;3.80;;;17.80;66.60;;;;;;6310404;22;20296;-76
2021/05/30 12:24:59;;;;;;;5.15;3.75;;;17.80;66.60;;;;;;6311193;22;20086;-76
2021/05/30 12:27:26;;;;;;;4.75;3.75;;;17.80;66.60;;;;;;6321818;22;20014;-75
2021/05/30 12:29:54;;;;;;;4.80;3.60;;;17.80;66.50;;;;;;6321339;22;20089;-75
2021/05/30 12:32:21;;;;;;;4.32;3.63;;;17.80;66.50;;;;;;6310388;22;20015;-76
2021/05/30 12:34:49;;;;;;;5.10;3.72;;;17.80;66.50;;;;;;6320894;22;20015;-75
2021/05/30 12:37:16;;;;;;;5.10;3.70;;;17.80;66.50;;;;;;6311399;22;20007;-78
2021/05/30 12:39:42;;;;;;;4.20;3.38;;;17.80;66.50;;;;;;6321214;22;20026;-75
2021/05/30 12:42:11;;;;;;;4.70;3.67;;;17.80;66.50;;;;;;6320531;22;20007;-76
2021/05/30 12:44:45;;;;;;;4.65;3.75;;;17.80;66.50;;;;;;6310942;22;20026;-76
2021/05/30 12:47:21;;;;;;;;;;;17.80;66.40;;;;;;6321849;22;20011;-75
2021/05/30 12:49:57;;;;;;;5.30;3.67;;;17.80;66.50;;;;;;6310737;22;20245;-76
2021/05/30 12:52:23;;;;;;;5.10;4.22;;;17.80;66.50;;;;;;6321076;22;20127;-77
2021/05/30 12:55:06;;;;;;;4.28;3.78;;;17.80;66.50;;;;;;6311347;22;20377;-75
2021/05/30 12:57:38;;;;;;;6.55;3.85;;;17.90;66.50;;;;;;6310288;22;20011;-77
2021/05/30 13:00:09;;;;;;;4.75;4.07;;;17.90;66.50;;;;;;6321308;22;20015;-75
2021/05/30 13:02:36;;;;;;;5.75;3.60;;;17.90;66.50;;;;;;6311310;22;20261;-76